Wednesday, May 04, 2016
07:58 UTC
  |  Log In   |  Register Free
Airport Search:

West Houston Airport
(KIWS)

West Houston Airport Diagram
No Airport Diagram Available

FAA data valid effective Mar 31 2016 - May 26 2016 (unless otherwise noted).

 
 
 
 
 
 
 
 
 
 
 
 
 
 
Summary: West Houston (IWS)

Weather Summary


METAR for KIWS is not available. Closest METAR is for KTME 11.8 nm NE
KTME  (11.8 nm NE)   (most recent observation was updated at 40:73 UTC)
040735Z AUTO 00000KT 10SM CLR 13/12 A3006 RMK AO2

KDWH  (15.9 nm SW)   (most recent observation was updated at 40:75 UTC)
040753Z AUTO 00000KT 10SM CLR 13/12 A3004 RMK AO2 SLP170 T01330117

TAF for KIWS is not available.
KSGR
040520Z 0406/0506 35005KT P6SM SKC FM041700 33010KT P6SM SKC

KIAH  (19.9 nm SW)   (most recent observation was updatred at 40:52 UTC)
040520Z 0406/0512 34007KT P6SM SCT100


KHOU  (23.0 nm NW)   (most recent observation was updatred at 40:52 UTC)
040520Z 0406/0506 35008KT P6SM SKC FM041700 33011KT P6SM SKC
GlobalAir.com is loading additional information.
Current weather conditions are not available for IWS.

The nearest NOAA weather station is at SGR (10.3 nm SE from IWS)
 Current Weather at SGR
60.0 F° (15.6 C°)
Fair
North winds at 5.8 mph
Pressure:
30.06 in
Humidity:
72%
Wind:
North at 5.8 MPH (5 KT)
Dew Point:
51.1 F° (10.6 C°)
Visibility:
10.00 mi
IWS NOAA Radar

Runway Summary

ID Dimensions Surface Instrument Approaches
15/33 75 ft x 3953 ft Asphalt, Good Condition RNAV (GPS) RWY 15
RNAV (GPS) RWY 15
RNAV (GPS) RWY 33
VOR-D

Communications Summary


CTAF123.05
UNICOM123.05
ATISN/A
HOUSTON APPROACH123.8
HOUSTON DEPARTURE123.8
CLEARANCE DELIVERY121.15

Closest Alternate Airports with Instrument Procedures

KEYQ - Weiser Air Park - 8.3 nm NE from IWS

O07 - Westheimer Air Park - 9.8 nm SW from IWS

O07 - Westheimer Air Park - 9.8 nm SW from IWS

O07 - Westheimer Air Park - 9.8 nm SW from IWS

KSGR - Sugar Land Regional - 13.6 nm SE from IWS

40XA - Lone Star - 14.6 nm SE from IWS

KT51 - Dan Jones International - 15.5 nm NE from IWS

KDWH - David Wayne Hooks Memorial - 18.3 nm NE from IWS

KIAH - George Bush Intercontinental/Houston - 22.9 nm NE from IWS

KAXH - Houston-Southwest - 24.6 nm SE from IWS

Find All Airport Services Find A Hotel Find A Rental Car Find A Golf Course Find A Restaurant $100 Hamburger



FBO's on the Field
FBO Company Facility Photos Services Transportation Aviation Fuel Prices: Prices include tax
Catering Weather Repair Courtesy Rental Type 100LL JetA JetA+ MOGAS 8087
 
West Houston Airport

Currently rated 2.5 by 2 people
FS:Independent
Last Updated: Apr-29
Login to update fuel prices
SS:
Contact West Houston AirportMore FBO Information
 
Add another FBO Facility Photos Catering Weather Repair Courtesy Rental Type 100LL JetA JetA+ MOGAS 8087
Services Transportation Aviation Fuel Prices: Prices include tax


model-print
model-print
model-print
model-print